| time (UTC) | temp F | wind direction | speed knots | gust knots | rain 1hr in | rain 24hr in | rain mn in | humidity % | barometer mb |
| 20260902132520 | 66 | 215 | 7.8 | 15.6 | 0.00 | 0.16 | 0.16 | 96 | 1012.1 |
| 20260902131528 | 66 | 209 | 8.7 | 17.4 | 0.00 | 0.16 | 0.16 | 95 | 1011.9 |
| 20260902130520 | 66 | 213 | 9.6 | 19.1 | 0.00 | 0.16 | 0.16 | 94 | 1012.1 |
| 20260902125522 | 66 | 209 | 8.7 | 16.5 | 0.00 | 0.16 | 0.16 | 96 | 1012.2 |
| 20260902124523 | 66 | 206 | 7.0 | 13.9 | 0.00 | 0.16 | 0.16 | 95 | 1011.9 |
| 20260902123521 | 67 | 209 | 7.8 | 17.4 | 0.00 | 0.16 | 0.16 | 93 | 1011.9 |
| 20260902122520 | 67 | 213 | 8.7 | 15.6 | 0.00 | 0.16 | 0.16 | 95 | 1011.9 |
| 20260902121528 | 66 | 212 | 7.0 | 16.5 | 0.00 | 0.16 | 0.16 | 100 | 1011.9 |
| 20260902120520 | 66 | 209 | 7.0 | 16.5 | 0.00 | 0.16 | 0.16 | 100 | 1011.9 |
| 20260902115521 | 65 | 212 | 7.0 | 13.9 | 0.00 | 0.16 | 0.16 | 100 | 1011.9 |
| 20260902114520 | 66 | 212 | 7.0 | 13.0 | 0.00 | 0.16 | 0.16 | 100 | 1012.0 |
| 20260902113528 | 65 | 213 | 6.1 | 12.2 | 0.00 | 0.16 | 0.16 | 100 | 1012.1 |
| 20260902112522 | 65 | 211 | 7.0 | 13.9 | 0.00 | 0.16 | 0.16 | 100 | 1011.8 |
| 20260902111528 | 65 | 205 | 7.0 | 13.0 | 0.00 | 0.16 | 0.16 | 100 | 1012.2 |
| 20260902110520 | 65 | 209 | 7.8 | 14.8 | 0.00 | 0.16 | 0.16 | 100 | 1011.6 |
| 20260902105520 | 65 | 211 | 7.8 | 15.6 | 0.00 | 0.16 | 0.16 | 100 | 1012.2 |
| 20260902104520 | 65 | 213 | 7.0 | 12.2 | 0.00 | 0.16 | 0.16 | 100 | 1012.1 |
| 20260902103519 | 64 | 212 | 7.8 | 15.6 | 0.00 | 0.16 | 0.16 | 100 | 1011.8 |
| 20260902102527 | 64 | 212 | 7.0 | 13.9 | 0.00 | 0.16 | 0.16 | 100 | 1011.2 |
| 20260902101521 | 65 | 211 | 7.0 | 15.6 | 0.00 | 0.16 | 0.16 | 100 | 1012.1 |
| 20260902100521 | 64 | 213 | 7.8 | 15.6 | 0.00 | 0.16 | 0.16 | 100 | 1012.0 |
| 20260902095523 | 64 | 213 | 7.0 | 16.5 | 0.00 | 0.16 | 0.16 | 100 | 1011.8 |
| 20260902094528 | 64 | 218 | 9.6 | 16.5 | 0.00 | 0.16 | 0.16 | 100 | 1012.0 |
| 20260902093527 | 63 | 210 | 7.8 | 15.6 | 0.00 | 0.16 | 0.16 | 100 | 1011.5 |
| 20260902092524 | 63 | 211 | 8.7 | 16.5 | 0.00 | 0.16 | 0.16 | 100 | 1011.6 |
| 20260902091527 | 63 | 211 | 7.8 | 15.6 | 0.00 | 0.16 | 0.16 | 100 | 1011.4 |
| 20260902090527 | 64 | 209 | 7.0 | 13.0 | 0.00 | 0.16 | 0.16 | 100 | 1011.7 |
| 20260902085527 | 63 | 211 | 6.1 | 13.0 | 0.00 | 0.16 | 0.16 | 100 | 1011.6 |
| 20260902084521 | 63 | 211 | 7.8 | 14.8 | 0.00 | 0.16 | 0.16 | 100 | 1011.6 |
| 20260902083520 | 63 | 209 | 6.1 | 11.3 | 0.00 | 0.16 | 0.16 | 100 | 1011.5 |
| 20260902082520 | 63 | 213 | 7.0 | 13.9 | 0.00 | 0.16 | 0.16 | 100 | 1011.5 |
| 20260902081527 | 63 | 213 | 7.8 | 13.0 | 0.00 | 0.16 | 0.16 | 100 | 1011.3 |
| 20260902080531 | 63 | 208 | 7.0 | 15.6 | 0.00 | 0.16 | 0.16 | 100 | 1011.2 |
| 20260902075526 | 63 | 203 | 5.2 | 11.3 | 0.00 | 0.16 | 0.16 | 100 | 1011.1 |
| 20260902074523 | 63 | 203 | 6.1 | 13.9 | 0.00 | 0.16 | 0.16 | 100 | 1011.0 |
| 20260902073523 | 64 | 206 | 7.0 | 13.9 | 0.00 | 0.16 | 0.16 | 100 | 1011.4 |
| 20260902072531 | 63 | 204 | 7.0 | 12.2 | 0.00 | 0.16 | 0.16 | 100 | 1011.3 |
| 20260902071523 | 63 | 206 | 5.2 | 9.6 | 0.00 | 0.16 | 0.16 | 100 | 1011.2 |
| 20260902070530 | 63 | 210 | 7.0 | 13.9 | 0.00 | 0.16 | 0.16 | 100 | 1011.0 |
| 20260902065523 | 63 | 202 | 6.1 | 12.2 | 0.01 | 0.16 | 0.16 | 100 | 1010.8 |
| 20260902064522 | 63 | 194 | 6.1 | 14.8 | 0.01 | 0.16 | 0.16 | 100 | 1010.8 |
| 20260902063523 | 63 | 183 | 6.1 | 11.3 | 0.01 | 0.16 | 0.16 | 100 | 1010.9 |
| 20260902062522 | 63 | 176 | 7.0 | 14.8 | 0.01 | 0.16 | 0.16 | 100 | 1011.1 |
| 20260902061558 | 63 | 174 | 6.1 | 13.0 | 0.02 | 0.16 | 0.16 | 100 | 1011.2 |
| 20260902060530 | 62 | 170 | 7.0 | 13.9 | 0.02 | 0.16 | 0.16 | 100 | 1011.1 |
| 20260902055522 | 62 | 160 | 10.4 | 18.2 | 0.02 | 0.15 | 0.15 | 100 | 1011.1 |
| 20260902054530 | 62 | 155 | 13.0 | 18.2 | 0.02 | 0.15 | 0.15 | 100 | 1011.2 |
| 20260902053525 | 62 | 156 | 13.9 | 22.6 | 0.03 | 0.15 | 0.15 | 100 | 1011.2 |
| 20260902052522 | 61 | 155 | 14.8 | 20.9 | 0.03 | 0.15 | 0.15 | 100 | 1011.4 |
| 20260902051530 | 61 | 154 | 13.9 | 18.2 | 0.03 | 0.14 | 0.14 | 100 | 1011.5 |
| 20260902050522 | 61 | 151 | 13.0 | 18.2 | 0.02 | 0.14 | 0.14 | 100 | 1011.6 |
| 20260902045522 | 61 | 150 | 13.9 | 20.0 | 0.02 | 0.14 | 0.14 | 100 | 1011.9 |
| 20260902044523 | 61 | 148 | 13.0 | 20.9 | 0.02 | 0.13 | 0.13 | 100 | 1012.1 |
| 20260902043522 | 61 | 147 | 13.0 | 19.1 | 0.02 | 0.12 | 0.12 | 100 | 1012.1 |
| 20260902042522 | 61 | 146 | 11.3 | 16.5 | 0.02 | 0.12 | 0.12 | 100 | 1012.2 |
| 20260902041523 | 61 | 149 | 13.0 | 17.4 | 0.02 | 0.11 | 0.11 | 100 | 1012.5 |
| 20260902040522 | 60 | 151 | 13.9 | 19.1 | 0.02 | 0.11 | 0.11 | 100 | 1012.7 |
| 20260902035522 | 60 | 150 | 14.8 | 21.7 | 0.02 | 0.11 | 0.11 | 100 | 1012.9 |
| 20260902034522 | 60 | 150 | 12.2 | 15.6 | 0.02 | 0.10 | 0.10 | 100 | 1013.2 |
| 20260902033523 | 60 | 150 | 13.0 | 17.4 | 0.02 | 0.10 | 0.10 | 100 | 1013.3 |
| 20260902032522 | 60 | 152 | 13.9 | 19.1 | 0.02 | 0.10 | 0.10 | 100 | 1013.7 |
| 20260902031522 | 60 | 153 | 12.2 | 15.6 | 0.02 | 0.10 | 0.10 | 100 | 1013.8 |
| 20260902030523 | 61 | 150 | 10.4 | 18.2 | 0.02 | 0.10 | 0.10 | 100 | 1014.0 |
| 20260902025523 | 60 | 155 | 10.4 | 16.5 | 0.04 | 0.09 | 0.09 | 100 | 1014.3 |
| 20260902024521 | 60 | 162 | 7.0 | 14.8 | 0.03 | 0.08 | 0.08 | 100 | 1014.4 |
| 20260902023521 | 60 | 159 | 12.2 | 18.2 | 0.05 | 0.08 | 0.08 | 100 | 1014.5 |
| 20260902022521 | 61 | 152 | 10.4 | 13.0 | 0.04 | 0.07 | 0.07 | 100 | 1014.6 |
| 20260902021522 | 60 | 150 | 7.8 | 11.3 | 0.04 | 0.07 | 0.07 | 100 | 1014.7 |
| 20260902020521 | 59 | 154 | 7.8 | 11.3 | 0.04 | 0.07 | 0.07 | 100 | 1015.0 |
| 20260902015522 | 60 | 157 | 6.1 | 9.6 | 0.02 | 0.05 | 0.05 | 100 | 1015.2 |
| 20260902014521 | 60 | 163 | 4.3 | 10.4 | 0.02 | 0.05 | 0.05 | 100 | 1015.3 |
| 20260902013529 | 60 | 165 | 7.0 | 13.9 | 0.01 | 0.03 | 0.03 | 100 | 1015.3 |
| 20260902012522 | 61 | 156 | 8.7 | 15.6 | 0.02 | 0.03 | 0.03 | 100 | 1015.3 |
| 20260902011521 | 61 | 157 | 8.7 | 13.0 | 0.02 | 0.03 | 0.03 | 100 | 1015.5 |
| 20260902010521 | 61 | 157 | 8.7 | 12.2 | 0.02 | 0.03 | 0.03 | 100 | 1015.7 |
| 20260902005521 | 61 | 155 | 8.7 | 13.9 | 0.02 | 0.03 | 0.03 | 100 | 1015.8 |
| 20260902004529 | 61 | 156 | 8.7 | 13.0 | 0.03 | 0.03 | 0.03 | 100 | 1015.9 |
| 20260902003521 | 61 | 158 | 10.4 | 14.8 | 0.02 | 0.02 | 0.02 | 100 | 1015.9 |
| 20260902002522 | 61 | 153 | 10.4 | 14.8 | 0.02 | 0.02 | 0.02 | 100 | 1016.0 |
| 20260902001521 | 61 | 152 | 9.6 | 13.0 | 0.01 | 0.01 | 0.01 | 100 | 1016.2 |
| 20260902000523 | 61 | 150 | 7.8 | 12.2 | 0.01 | 0.01 | 0.01 | 100 | 1016.2 |
| 20260901235529 | 61 | 152 | 7.8 | 13.0 | 0.01 | 0.01 | 0.01 | 100 | 1016.4 |
| 20260901234521 | 61 | 153 | 8.7 | 12.2 | 0.00 | 0.00 | 0.00 | 100 | 1016.5 |
| 20260901233529 | 61 | 156 | 8.7 | 12.2 | 0.00 | 0.00 | 0.00 | 100 | 1016.6 |
| 20260901232523 | 61 | 152 | 8.7 | 13.0 | 0.00 | 0.00 | 0.00 | 100 | 1016.8 |
| 20260901231529 | 61 | 156 | 7.0 | 11.3 | 0.00 | 0.00 | 0.00 | 100 | 1017.0 |
| 20260901230521 | 61 | 153 | 8.7 | 13.9 | 0.00 | 0.00 | 0.00 | 100 | 1017.0 |
| 20260901225529 | 62 | 154 | 6.1 | 8.7 | 0.00 | 0.00 | 0.00 | 93 | 1017.0 |
| 20260901224522 | 62 | 159 | 4.3 | 8.7 | 0.00 | 0.00 | 0.00 | 92 | 1017.1 |
| 20260901223522 | 62 | 158 | 4.3 | 7.8 | 0.00 | 0.00 | 0.00 | 92 | 1017.1 |
| 20260901222521 | 62 | 173 | 3.5 | 7.8 | 0.00 | 0.00 | 0.00 | 89 | 1017.1 |
| 20260901221521 | 61 | 172 | 3.5 | 7.0 | 0.00 | 0.00 | 0.00 | 89 | 1017.1 |
| 20260901220528 | 61 | 180 | 3.5 | 6.1 | 0.00 | 0.00 | 0.00 | 91 | 1017.1 |
| 20260901215520 | 62 | 172 | 3.5 | 7.0 | 0.00 | 0.00 | 0.00 | 92 | 1017.2 |
| 20260901214528 | 62 | 196 | 3.5 | 7.0 | 0.00 | 0.00 | 0.00 | 92 | 1017.3 |
| 20260901213520 | 62 | 203 | 3.5 | 7.8 | 0.00 | 0.00 | 0.00 | 90 | 1017.4 |
| 20260901212521 | 61 | 212 | 4.3 | 10.4 | 0.00 | 0.00 | 0.00 | 91 | 1017.4 |
| 20260901211520 | 61 | 205 | 4.3 | 7.8 | 0.00 | 0.00 | 0.00 | 94 | 1017.2 |
| 20260901210528 | 62 | 203 | 4.3 | 9.6 | 0.00 | 0.00 | 0.00 | 95 | 1017.3 |
| 20260901205520 | 62 | 205 | 3.5 | 7.0 | 0.00 | 0.00 | 0.00 | 94 | 1017.3 |
| 20260901204524 | 62 | 204 | 5.2 | 9.6 | 0.00 | 0.00 | 0.00 | 93 | 1017.3 |
| 20260901203520 | 61 | 208 | 5.2 | 8.7 | 0.00 | 0.00 | 0.00 | 92 | 1017.3 |
| 20260901202520 | 61 | 206 | 4.3 | 9.6 | 0.00 | 0.00 | 0.00 | 92 | 1017.4 |
| 20260901201528 | 61 | 207 | 4.3 | 8.7 | 0.00 | 0.00 | 0.00 | 94 | 1017.4 |
| 20260901200520 | 61 | 202 | 3.5 | 6.1 | 0.00 | 0.00 | 0.00 | 94 | 1017.5 |
| 20260901195522 | 61 | 215 | 6.1 | 11.3 | 0.00 | 0.00 | 0.00 | 94 | 1017.4 |
| 20260901194520 | 61 | 216 | 6.1 | 10.4 | 0.00 | 0.00 | 0.00 | 95 | 1017.5 |
| 20260901193520 | 62 | 203 | 5.2 | 10.4 | 0.00 | 0.00 | 0.00 | 94 | 1017.5 |
| 20260901192528 | 63 | 212 | 5.2 | 10.4 | 0.00 | 0.00 | 0.00 | 95 | 1017.5 |
| 20260901191520 | 62 | 208 | 4.3 | 7.0 | 0.00 | 0.00 | 0.00 | 96 | 1017.2 |
| 20260901190521 | 63 | 218 | 4.3 | 8.7 | 0.00 | 0.00 | 0.00 | 96 | 1017.3 |
| 20260901185521 | 63 | 217 | 5.2 | 7.0 | 0.00 | 0.00 | 0.00 | 96 | 1017.3 |
| 20260901184522 | 63 | 212 | 5.2 | 11.3 | 0.00 | 0.00 | 0.00 | 95 | 1017.3 |
| 20260901183520 | 63 | 213 | 6.1 | 11.3 | 0.00 | 0.00 | 0.00 | 95 | 1017.3 |
| 20260901182522 | 63 | 214 | 4.3 | 10.4 | 0.00 | 0.00 | 0.00 | 95 | 1017.3 |
| 20260901181519 | 63 | 207 | 4.3 | 9.6 | 0.00 | 0.00 | 0.00 | 95 | 1017.3 |
| 20260901180519 | 63 | 209 | 5.2 | 9.6 | 0.00 | 0.00 | 0.00 | 95 | 1017.2 |
| 20260901175520 | 63 | 208 | 5.2 | 10.4 | 0.00 | 0.00 | 0.00 | 95 | 1017.3 |
| 20260901174521 | 63 | 208 | 5.2 | 11.3 | 0.00 | 0.00 | 0.00 | 95 | 1017.4 |
| 20260901173520 | 63 | 211 | 6.1 | 12.2 | 0.00 | 0.00 | 0.00 | 94 | 1017.5 |
| 20260901172527 | 63 | 209 | 7.0 | 13.9 | 0.00 | 0.00 | 0.00 | 93 | 1017.4 |
| 20260901171524 | 63 | 212 | 6.1 | 11.3 | 0.00 | 0.00 | 0.00 | 92 | 1017.4 |
| 20260901170520 | 63 | 211 | 5.2 | 10.4 | 0.00 | 0.00 | 0.00 | 88 | 1017.4 |
| 20260901165521 | 63 | 212 | 5.2 | 11.3 | 0.00 | 0.00 | 0.00 | 82 | 1017.4 |
| 20260901164521 | 63 | 223 | 6.1 | 10.4 | 0.00 | 0.00 | 0.00 | 79 | 1017.4 |
| 20260901163527 | 63 | 215 | 7.0 | 12.2 | 0.00 | 0.00 | 0.00 | 77 | 1017.5 |
| 20260901162519 | 63 | 231 | 11.3 | 16.5 | 0.00 | 0.00 | 0.00 | 78 | 1017.5 |
| 20260901161519 | 64 | 220 | 7.0 | 17.4 | 0.00 | 0.00 | 0.00 | 89 | 1017.6 |
| 20260901160522 | 64 | 210 | 5.2 | 9.6 | 0.00 | 0.00 | 0.00 | 89 | 1017.6 |
| 20260901155520 | 64 | 203 | 7.0 | 14.8 | 0.00 | 0.00 | 0.00 | 87 | 1017.7 |
| 20260901154520 | 64 | 199 | 5.2 | 11.3 | 0.00 | 0.00 | 0.00 | 87 | 1017.6 |
| 20260901153519 | 64 | 207 | 6.1 | 13.0 | 0.00 | 0.00 | 0.00 | 87 | 1017.7 |
| 20260901152526 | 64 | 209 | 6.1 | 11.3 | 0.00 | 0.00 | 0.00 | 86 | 1017.7 |
| 20260901151523 | 64 | 209 | 7.0 | 13.0 | 0.00 | 0.00 | 0.00 | 86 | 1017.8 |
| 20260901150527 | 65 | 206 | 6.1 | 15.6 | 0.00 | 0.00 | 0.00 | 86 | 1017.9 |
| 20260901145531 | 65 | 204 | 6.1 | 12.2 | 0.00 | 0.00 | 0.00 | 85 | 1018.0 |
| 20260901144525 | 65 | 203 | 6.1 | 9.6 | 0.00 | 0.00 | 0.00 | 84 | 1018.1 |
| 20260901143523 | 66 | 209 | 7.8 | 13.9 | 0.00 | 0.00 | 0.00 | 83 | 1018.1 |
| 20260901142524 | 65 | 200 | 6.1 | 12.2 | 0.00 | 0.00 | 0.00 | 84 | 1018.1 |
| 20260901141523 | 66 | 200 | 6.1 | 13.0 | 0.00 | 0.00 | 0.00 | 82 | 1018.2 |
| 20260901140526 | 66 | 189 | 5.2 | 9.6 | 0.00 | 0.00 | 0.00 | 81 | 1018.1 |
| 20260901135522 | 66 | 184 | 5.2 | 9.6 | 0.00 | 0.00 | 0.00 | 81 | 1018.2 |
| 20260901134530 | 66 | 190 | 4.3 | 10.4 | 0.00 | 0.00 | 0.00 | 81 | 1018.3 |
| 20260901133522 | 66 | 188 | 5.2 | 12.2 | 0.00 | 0.00 | 0.00 | 81 | 1018.4 |